createdAt,value
2018-12-03T00:01:24.676Z,12.45
2018-12-03T00:04:06.145Z,13.30
2018-12-03T00:06:41.625Z,10.45
2018-12-03T00:09:17.340Z,7.22
2018-12-03T00:11:52.915Z,8.80
2018-12-03T00:14:28.714Z,8.20
2018-12-03T00:17:04.031Z,9.08
2018-12-03T00:19:39.644Z,9.05
2018-12-03T00:22:15.781Z,8.98
2018-12-03T00:24:51.356Z,9.73
2018-12-03T00:27:26.826Z,8.93
2018-12-03T00:30:02.419Z,10.58
2018-12-03T00:32:38.137Z,11.30
2018-12-03T00:35:13.851Z,12.05
2018-12-03T00:37:49.187Z,12.95
2018-12-03T00:40:24.681Z,13.62
2018-12-03T00:43:00.055Z,13.75
2018-12-03T00:45:35.469Z,14.35
2018-12-03T00:48:10.972Z,14.05
2018-12-03T00:50:46.380Z,15.18
2018-12-03T00:53:21.735Z,15.05
2018-12-03T00:55:57.311Z,15.08
2018-12-03T00:58:32.779Z,17.10
2018-12-03T01:01:08.172Z,16.62
2018-12-03T01:03:43.443Z,16.48
2018-12-03T01:06:18.988Z,17.02
2018-12-03T01:08:54.639Z,19.45
2018-12-03T01:11:30.067Z,17.98
2018-12-03T01:14:06.417Z,17.95
2018-12-03T01:16:40.991Z,17.65
2018-12-03T01:19:16.227Z,18.05
2018-12-03T01:21:51.753Z,19.73
2018-12-03T01:24:26.959Z,18.20
2018-12-03T01:27:02.456Z,19.32
2018-12-03T01:29:38.199Z,19.15
2018-12-03T01:32:13.635Z,18.40
2018-12-03T01:34:49.102Z,19.75
2018-12-03T01:37:24.727Z,19.05
2018-12-03T01:40:00.323Z,18.20
2018-12-03T01:42:35.895Z,18.40
2018-12-03T01:45:12.761Z,17.98
2018-12-03T01:47:48.157Z,19.05
2018-12-03T01:50:23.800Z,17.17
2018-12-03T01:52:59.273Z,17.40
2018-12-03T01:55:34.835Z,18.37
2018-12-03T01:58:10.318Z,18.55
2018-12-03T02:00:45.891Z,16.82
2018-12-03T02:03:21.372Z,17.27
2018-12-03T02:05:56.846Z,18.80
2018-12-03T02:08:32.140Z,18.05
2018-12-03T02:11:07.667Z,17.73
2018-12-03T02:13:43.252Z,17.92
2018-12-03T02:16:18.779Z,18.17
2018-12-03T02:18:54.265Z,17.15
2018-12-03T02:21:29.755Z,18.25
2018-12-03T02:24:05.569Z,17.85
2018-12-03T02:26:41.179Z,17.92
2018-12-03T02:29:16.564Z,18.23
2018-12-03T02:31:52.049Z,16.67
2018-12-03T02:34:27.431Z,17.48
2018-12-03T02:37:03.349Z,18.67
2018-12-03T02:39:38.663Z,16.93
2018-12-03T02:42:14.121Z,17.82
2018-12-03T02:44:49.560Z,17.10
2018-12-03T02:47:24.976Z,16.25
2018-12-03T02:50:00.456Z,16.90
2018-12-03T02:52:35.937Z,17.15
2018-12-03T02:55:12.783Z,16.85
2018-12-03T02:57:48.343Z,16.52
2018-12-03T03:00:23.919Z,16.97
2018-12-03T03:02:59.356Z,17.20
2018-12-03T03:05:35.187Z,16.62
2018-12-03T03:08:10.947Z,18.57
2018-12-03T03:10:46.387Z,16.97
2018-12-03T03:13:21.933Z,17.67
2018-12-03T03:15:57.310Z,16.32
2018-12-03T03:18:32.929Z,18.45
2018-12-03T03:21:08.419Z,18.82
2018-12-03T03:23:43.990Z,18.87
2018-12-03T03:26:19.287Z,19.20
2018-12-03T03:28:54.702Z,19.65
2018-12-03T03:31:30.087Z,18.52
2018-12-03T03:34:06.041Z,19.35
2018-12-03T03:36:41.568Z,19.62
2018-12-03T03:39:17.227Z,18.92
2018-12-03T03:41:52.592Z,18.70
2018-12-03T03:44:28.608Z,18.12
2018-12-03T03:47:10.741Z,19.00
2018-12-03T03:49:46.381Z,19.40
2018-12-03T03:52:21.746Z,19.15
2018-12-03T03:54:57.260Z,18.87
2018-12-03T03:57:32.919Z,19.87
2018-12-03T04:00:13.920Z,18.57
2018-12-03T04:02:49.210Z,18.07
2018-12-03T04:05:24.601Z,18.87
2018-12-03T04:07:59.990Z,18.73
2018-12-03T04:10:35.659Z,18.05
2018-12-03T04:13:11.141Z,19.95
2018-12-03T04:15:46.619Z,19.12
2018-12-03T04:18:21.991Z,20.12
2018-12-03T04:20:57.757Z,19.07
2018-12-03T04:23:33.112Z,19.62
2018-12-03T04:26:08.507Z,19.32
2018-12-03T04:28:43.989Z,17.87
2018-12-03T04:31:19.547Z,18.62
2018-12-03T04:33:54.993Z,17.62
2018-12-03T04:36:30.719Z,17.10
2018-12-03T04:39:08.530Z,18.15
2018-12-03T04:41:43.967Z,16.75
2018-12-03T04:44:19.457Z,18.02
2018-12-03T04:46:55.451Z,18.67
2018-12-03T04:49:30.643Z,17.85
2018-12-03T04:52:06.713Z,18.37
2018-12-03T04:54:41.871Z,17.20
2018-12-03T04:57:17.560Z,18.30
2018-12-03T04:59:53.120Z,17.80
2018-12-03T05:02:28.659Z,17.23
2018-12-03T05:05:04.186Z,18.57
2018-12-03T05:07:40.471Z,16.80
2018-12-03T05:10:18.074Z,17.07
2018-12-03T05:12:54.370Z,19.52
2018-12-03T05:15:29.607Z,18.73
2018-12-03T05:18:05.528Z,17.80
2018-12-03T05:20:40.995Z,19.60
2018-12-03T05:23:16.420Z,17.90
2018-12-03T05:25:51.945Z,17.45
2018-12-03T05:28:27.407Z,17.92
2018-12-03T05:31:02.806Z,18.52
2018-12-03T05:33:38.399Z,19.48
2018-12-03T05:36:13.872Z,17.82
2018-12-03T05:38:49.296Z,16.77
2018-12-03T05:41:24.595Z,18.55
2018-12-03T05:44:00.143Z,18.40
2018-12-03T05:46:35.958Z,16.67
2018-12-03T05:49:11.711Z,16.87
2018-12-03T05:51:47.335Z,16.50
2018-12-03T05:54:22.867Z,16.82
2018-12-03T05:56:58.537Z,16.57
2018-12-03T05:59:34.057Z,16.67
2018-12-03T06:02:09.532Z,17.73
2018-12-03T06:04:45.015Z,16.25
2018-12-03T06:07:20.524Z,16.40
2018-12-03T06:09:55.771Z,15.93
2018-12-03T06:12:31.325Z,16.87
2018-12-03T06:15:11.047Z,18.15
2018-12-03T06:17:47.526Z,17.25
2018-12-03T06:20:23.675Z,17.15
2018-12-03T06:22:59.237Z,17.32
2018-12-03T06:25:34.792Z,16.02
2018-12-03T06:28:10.394Z,17.10
2018-12-03T06:30:45.704Z,17.52
2018-12-03T06:33:21.206Z,17.05
2018-12-03T06:35:56.549Z,16.25
2018-12-03T06:38:32.111Z,16.37
2018-12-03T06:41:07.578Z,16.17
2018-12-03T06:43:43.103Z,16.15
2018-12-03T06:46:18.586Z,15.40
2018-12-03T06:48:54.194Z,15.63
2018-12-03T06:51:29.666Z,15.18
2018-12-03T06:54:05.196Z,14.70
2018-12-03T06:56:40.616Z,14.13
2018-12-03T06:59:16.180Z,13.95
2018-12-03T07:01:51.541Z,14.73
2018-12-03T07:04:27.168Z,14.07
2018-12-03T07:07:02.684Z,12.05
2018-12-03T07:09:38.387Z,11.12
2018-12-03T07:12:13.907Z,11.00
2018-12-03T07:14:49.570Z,9.95
2018-12-03T07:17:25.192Z,10.43
2018-12-03T07:20:00.863Z,11.50
2018-12-03T07:22:36.227Z,11.35
2018-12-03T07:25:12.719Z,11.05
2018-12-03T07:27:48.143Z,11.40
2018-12-03T07:30:24.715Z,11.20
2018-12-03T07:33:00.167Z,12.45
2018-12-03T07:35:35.592Z,10.48
2018-12-03T07:38:11.157Z,10.40
2018-12-03T07:40:46.689Z,11.22
2018-12-03T07:43:22.211Z,9.88
2018-12-03T07:45:57.855Z,9.38
2018-12-03T07:48:33.059Z,8.33
2018-12-03T07:51:08.578Z,8.25
2018-12-03T07:53:44.219Z,8.70
2018-12-03T07:56:19.758Z,7.97
2018-12-03T07:58:55.312Z,9.30
2018-12-03T08:01:30.806Z,8.15
2018-12-03T08:04:06.928Z,8.38
2018-12-03T08:06:42.304Z,8.08
2018-12-03T08:09:17.911Z,7.33
2018-12-03T08:11:53.396Z,7.72
2018-12-03T08:14:29.011Z,6.90
2018-12-03T08:17:04.331Z,7.40
2018-12-03T08:19:40.102Z,7.10
2018-12-03T08:22:16.051Z,6.92
2018-12-03T08:24:51.715Z,7.10
2018-12-03T08:27:27.080Z,6.65
2018-12-03T08:30:02.608Z,7.10
2018-12-03T08:32:38.183Z,6.65
2018-12-03T08:35:16.047Z,6.62
2018-12-03T08:37:51.523Z,6.87
2018-12-03T08:40:27.145Z,5.90
2018-12-03T08:43:02.659Z,6.80
2018-12-03T08:45:38.259Z,6.25
2018-12-03T08:48:13.835Z,6.97
2018-12-03T08:50:49.339Z,7.00
2018-12-03T08:53:24.900Z,6.35
2018-12-03T08:56:00.844Z,7.30
2018-12-03T08:58:36.379Z,7.28
2018-12-03T09:01:16.305Z,6.30
2018-12-03T09:04:01.627Z,6.62
2018-12-03T09:06:37.166Z,7.72
2018-12-03T09:09:15.575Z,7.10
2018-12-03T09:11:52.366Z,5.95
2018-12-03T09:14:33.159Z,7.10
2018-12-03T09:17:08.548Z,7.60
2018-12-03T09:19:48.723Z,6.50
2018-12-03T09:22:24.375Z,6.92
2018-12-03T09:25:00.138Z,6.55
2018-12-03T09:27:35.583Z,6.20
2018-12-03T09:30:11.145Z,6.50
2018-12-03T09:32:46.876Z,6.17
2018-12-03T09:35:22.178Z,6.75
2018-12-03T09:37:57.770Z,6.42
2018-12-03T09:40:33.355Z,6.40
2018-12-03T09:43:08.960Z,6.78
2018-12-03T09:45:44.338Z,5.78
2018-12-03T09:48:19.851Z,5.70
2018-12-03T09:50:55.132Z,6.15
2018-12-03T09:53:30.671Z,5.20
2018-12-03T09:56:06.727Z,4.72
2018-12-03T09:58:42.139Z,4.55
2018-12-03T10:01:17.579Z,4.05
2018-12-03T10:03:53.488Z,4.72
2018-12-03T10:06:28.947Z,4.30
2018-12-03T10:09:06.176Z,4.30
2018-12-03T10:11:41.523Z,4.65
2018-12-03T10:14:20.855Z,4.40
2018-12-03T10:16:56.143Z,4.60
2018-12-03T10:19:31.649Z,4.65
2018-12-03T10:22:08.454Z,5.10
2018-12-03T10:24:43.968Z,3.95
2018-12-03T10:27:19.317Z,4.70
2018-12-03T10:29:54.965Z,4.83
2018-12-03T10:32:30.436Z,5.20
2018-12-03T10:35:06.431Z,4.50
2018-12-03T10:37:41.648Z,3.98
2018-12-03T10:40:21.256Z,4.37
2018-12-03T10:42:56.723Z,4.67
2018-12-03T10:45:32.166Z,4.10
2018-12-03T10:48:07.979Z,4.37
2018-12-03T10:50:43.965Z,4.20
2018-12-03T10:53:25.422Z,4.37
2018-12-03T10:56:01.190Z,4.55
2018-12-03T10:58:39.021Z,4.20
2018-12-03T11:01:19.868Z,5.12
2018-12-03T11:04:00.524Z,4.47
2018-12-03T11:06:36.217Z,4.78
2018-12-03T11:09:11.549Z,4.28
2018-12-03T11:11:49.715Z,5.20
2018-12-03T11:14:25.207Z,5.10
2018-12-03T11:17:01.039Z,4.87
2018-12-03T11:19:36.459Z,5.62
2018-12-03T11:22:12.711Z,5.08
2018-12-03T11:24:48.071Z,5.30
2018-12-03T11:27:25.267Z,5.00
2018-12-03T11:29:59.819Z,5.45
2018-12-03T11:32:35.340Z,5.40
2018-12-03T11:35:11.831Z,5.50
2018-12-03T11:37:47.476Z,4.75
2018-12-03T11:40:58.652Z,4.90
2018-12-03T11:43:34.295Z,5.40
2018-12-03T11:46:10.102Z,3.92
2018-12-03T11:48:45.579Z,5.40
2018-12-03T11:51:21.040Z,4.72
2018-12-03T11:53:56.520Z,4.78
2018-12-03T11:56:32.450Z,5.97
2018-12-03T11:59:07.715Z,5.33
2018-12-03T12:01:43.232Z,4.20
2018-12-03T12:04:18.536Z,4.67
2018-12-03T12:06:54.015Z,4.08
2018-12-03T12:09:29.265Z,4.65
2018-12-03T12:12:05.014Z,4.28
2018-12-03T12:14:40.451Z,4.55
2018-12-03T12:17:16.608Z,5.05
2018-12-03T12:19:52.099Z,4.90
2018-12-03T12:22:27.815Z,5.30
2018-12-03T12:25:03.386Z,4.72
2018-12-03T12:27:40.627Z,4.87
2018-12-03T12:30:16.615Z,4.72
2018-12-03T12:32:52.047Z,4.47
2018-12-03T12:35:27.567Z,4.72
2018-12-03T12:38:02.954Z,5.30
2018-12-03T12:40:38.361Z,5.12
2018-12-03T12:43:13.841Z,5.08
2018-12-03T12:45:59.626Z,5.15
2018-12-03T12:48:35.275Z,5.22
2018-12-03T12:51:10.578Z,4.40
2018-12-03T12:53:46.275Z,5.60
2018-12-03T12:56:22.057Z,4.40
2018-12-03T12:58:57.668Z,5.17
2018-12-03T13:01:33.124Z,5.50
2018-12-03T13:04:08.815Z,4.40
2018-12-03T13:06:44.240Z,5.20
2018-12-03T13:09:20.056Z,4.25
2018-12-03T13:11:55.359Z,5.10
2018-12-03T13:14:31.051Z,4.78
2018-12-03T13:17:07.511Z,5.05
2018-12-03T13:19:43.054Z,5.58
2018-12-03T13:22:18.553Z,5.70
2018-12-03T13:24:54.283Z,5.87
2018-12-03T13:27:29.591Z,5.25
2018-12-03T13:30:07.718Z,5.05
2018-12-03T13:32:43.574Z,5.25
2018-12-03T13:35:19.138Z,5.10
2018-12-03T13:37:54.607Z,4.95
2018-12-03T13:40:30.207Z,4.62
2018-12-03T13:43:06.115Z,5.00
2018-12-03T13:45:41.432Z,6.03
2018-12-03T13:48:17.000Z,6.00
2018-12-03T13:50:52.350Z,6.05
2018-12-03T13:53:27.958Z,4.70
2018-12-03T13:56:03.328Z,5.33
2018-12-03T13:58:39.147Z,4.95
2018-12-03T14:01:14.351Z,5.80
2018-12-03T14:03:49.910Z,4.10
2018-12-03T14:06:39.387Z,4.90
2018-12-03T14:09:40.569Z,4.15
2018-12-03T14:12:34.413Z,5.12
2018-12-03T14:15:30.573Z,4.15
2018-12-03T14:18:21.076Z,5.80
2018-12-03T14:21:07.053Z,5.45
2018-12-03T14:23:43.227Z,4.40
2018-12-03T14:26:18.775Z,6.08
2018-12-03T14:28:54.526Z,6.12
2018-12-03T14:31:29.934Z,5.20
2018-12-03T14:34:06.333Z,5.08
2018-12-03T14:36:41.698Z,5.33
2018-12-03T14:39:17.139Z,5.20
2018-12-03T14:41:52.560Z,5.65
2018-12-03T14:44:28.323Z,6.00
2018-12-03T14:47:03.831Z,5.22
2018-12-03T14:49:39.452Z,5.55
2018-12-03T14:52:14.897Z,5.10
2018-12-03T14:54:50.503Z,6.30
2018-12-03T14:57:26.899Z,6.17
2018-12-03T15:00:03.382Z,7.65
2018-12-03T15:02:38.712Z,5.67
2018-12-03T15:05:14.460Z,6.30
2018-12-03T15:07:49.944Z,6.83
2018-12-03T15:10:25.324Z,5.72
2018-12-03T15:13:00.957Z,5.15
2018-12-03T15:15:36.876Z,8.20
2018-12-03T15:18:12.266Z,4.80
2018-12-03T15:20:52.173Z,6.12
2018-12-03T15:23:27.596Z,6.15
2018-12-03T15:26:03.128Z,7.08
2018-12-03T15:28:38.880Z,6.97
2018-12-03T15:31:14.745Z,5.92
2018-12-03T15:33:50.022Z,5.83
2018-12-03T15:36:25.513Z,6.92
2018-12-03T15:39:01.036Z,5.72
2018-12-03T15:41:37.123Z,8.15
2018-12-03T15:44:12.611Z,9.83
2018-12-03T15:46:48.204Z,11.70
2018-12-03T15:49:23.566Z,6.72
2018-12-03T15:51:58.990Z,8.43
2018-12-03T15:54:34.323Z,8.73
2018-12-03T15:57:10.039Z,8.60
2018-12-03T15:59:45.400Z,7.92
2018-12-03T16:02:20.992Z,10.30
2018-12-03T16:04:56.595Z,8.80
2018-12-03T16:07:32.203Z,6.60
2018-12-03T16:10:11.840Z,6.37
2018-12-03T16:12:48.507Z,12.60
2018-12-03T16:15:23.927Z,20.15
2018-12-03T16:17:59.799Z,8.10
2018-12-03T16:20:35.131Z,8.38
2018-12-03T16:23:11.526Z,8.23
2018-12-03T16:25:47.019Z,9.55
2018-12-03T16:28:22.514Z,16.23
2018-12-03T16:30:57.893Z,10.72
2018-12-03T16:33:33.505Z,9.88
2018-12-03T16:36:08.984Z,9.38
2018-12-03T16:38:44.695Z,10.18
2018-12-03T16:41:20.088Z,8.95
2018-12-03T16:43:55.597Z,10.72
2018-12-03T16:46:31.021Z,9.83
2018-12-03T16:49:06.581Z,9.85
2018-12-03T16:51:41.902Z,9.13
2018-12-03T16:54:17.199Z,12.63
2018-12-03T16:56:52.829Z,10.13
2018-12-03T16:59:28.387Z,11.12
2018-12-03T17:02:03.888Z,9.98
2018-12-03T17:04:39.450Z,9.85
2018-12-03T17:07:14.915Z,9.05
2018-12-03T17:09:50.767Z,10.45
2018-12-03T17:12:29.563Z,10.25
2018-12-03T17:15:05.291Z,10.75
2018-12-03T17:17:40.763Z,10.80
2018-12-03T17:20:42.140Z,13.08
2018-12-03T17:23:30.363Z,10.90
2018-12-03T17:26:05.749Z,9.25
2018-12-03T17:28:41.480Z,10.10
2018-12-03T17:31:16.826Z,9.45
2018-12-03T17:33:52.344Z,11.70
2018-12-03T17:36:27.837Z,10.18
2018-12-03T17:39:04.432Z,9.50
2018-12-03T17:41:39.347Z,10.15
2018-12-03T17:44:14.887Z,9.40
2018-12-03T17:46:50.266Z,10.20
2018-12-03T17:49:26.079Z,9.55
2018-12-03T17:52:01.510Z,10.78
2018-12-03T17:54:36.864Z,9.38
2018-12-03T17:57:12.244Z,10.50
2018-12-03T17:59:47.777Z,9.18
2018-12-03T18:02:23.068Z,10.08
2018-12-03T18:04:58.620Z,9.65
2018-12-03T18:07:34.081Z,12.37
2018-12-03T18:10:11.664Z,11.20
2018-12-03T18:12:46.977Z,12.20
2018-12-03T18:15:22.500Z,9.63
2018-12-03T18:17:58.031Z,10.20
2018-12-03T18:20:33.735Z,10.98
2018-12-03T18:23:09.107Z,9.40
2018-12-03T18:25:44.575Z,11.60
2018-12-03T18:28:20.088Z,10.80
2018-12-03T18:30:55.839Z,10.45
2018-12-03T18:33:31.166Z,12.90
2018-12-03T18:36:06.850Z,12.60
2018-12-03T18:38:42.461Z,12.75
2018-12-03T18:41:18.168Z,10.45
2018-12-03T18:43:53.580Z,10.28
2018-12-03T18:46:28.937Z,10.45
2018-12-03T18:49:19.936Z,10.85
2018-12-03T18:51:55.278Z,10.03
2018-12-03T18:54:30.687Z,12.33
2018-12-03T18:57:06.400Z,10.13
2018-12-03T18:59:42.009Z,10.40
2018-12-03T19:02:17.359Z,11.28
2018-12-03T19:04:52.913Z,12.10
2018-12-03T19:07:28.238Z,12.65
2018-12-03T19:10:04.415Z,12.63
2018-12-03T19:12:42.240Z,10.53
2018-12-03T19:15:17.967Z,9.50
2018-12-03T19:17:53.351Z,10.23
2018-12-03T19:20:28.960Z,9.85
2018-12-03T19:23:04.183Z,9.73
2018-12-03T19:25:39.754Z,9.13
2018-12-03T19:28:15.416Z,10.82
2018-12-03T19:30:51.070Z,9.75
2018-12-03T19:33:26.414Z,9.15
2018-12-03T19:36:02.164Z,9.33
2018-12-03T19:38:37.751Z,8.90
2018-12-03T19:41:13.469Z,9.73
2018-12-03T19:43:48.933Z,9.65
2018-12-03T19:46:24.538Z,9.95
2018-12-03T19:49:00.240Z,10.32
2018-12-03T19:51:35.748Z,16.48
2018-12-03T19:54:11.192Z,10.82
2018-12-03T19:56:47.041Z,10.00
2018-12-03T19:59:25.324Z,10.90
2018-12-03T20:02:00.901Z,10.93
2018-12-03T20:04:50.481Z,10.60
2018-12-03T20:07:26.317Z,10.80
2018-12-03T20:10:02.083Z,14.50
2018-12-03T20:12:37.540Z,18.10
2018-12-03T20:15:13.167Z,17.50
2018-12-03T20:17:48.823Z,11.75
2018-12-03T20:20:34.188Z,12.07
2018-12-03T20:23:24.259Z,13.38
2018-12-03T20:26:14.853Z,12.10
2018-12-03T20:28:59.900Z,10.82
2018-12-03T20:32:56.711Z,11.00
2018-12-03T20:35:41.291Z,11.55
2018-12-03T20:38:30.379Z,12.93
2018-12-03T20:41:46.848Z,14.45
2018-12-03T20:44:32.275Z,11.75
2018-12-03T20:47:17.199Z,11.40
2018-12-03T20:50:33.850Z,12.53
2018-12-03T20:53:09.285Z,20.72
2018-12-03T20:55:46.718Z,15.00
2018-12-03T20:58:22.435Z,14.23
2018-12-03T21:00:57.766Z,14.87
2018-12-03T21:03:33.152Z,14.47
2018-12-03T21:06:08.707Z,12.58
2018-12-03T21:08:44.193Z,12.30
2018-12-03T21:11:19.501Z,14.78
2018-12-03T21:13:54.935Z,12.75
2018-12-03T21:16:30.376Z,16.50
2018-12-03T21:19:05.969Z,12.80
2018-12-03T21:21:41.456Z,14.83
2018-12-03T21:24:16.918Z,19.55
2018-12-03T21:26:52.931Z,12.58
2018-12-03T21:29:28.679Z,18.20
2018-12-03T21:32:04.163Z,11.80
2018-12-03T21:34:40.020Z,9.15
2018-12-03T21:37:40.807Z,15.18
2018-12-03T21:40:15.217Z,8.10
2018-12-03T21:42:50.807Z,4.30
2018-12-03T21:45:25.403Z,4.17
2018-12-03T21:48:00.731Z,4.17
2018-12-03T21:50:35.258Z,4.55
2018-12-03T21:53:09.662Z,4.15
2018-12-03T21:55:44.299Z,7.62
2018-12-03T21:58:18.757Z,4.72
2018-12-03T22:00:53.266Z,4.45
2018-12-03T22:03:27.716Z,3.87
2018-12-03T22:06:02.116Z,4.65
2018-12-03T22:08:36.596Z,5.05
2018-12-03T22:11:11.504Z,2.92
2018-12-03T22:13:46.095Z,6.00
2018-12-03T22:16:21.701Z,1.87
2018-12-03T22:18:56.550Z,2.60
2018-12-03T22:21:32.118Z,2.60
2018-12-03T22:24:06.849Z,3.05
2018-12-03T22:26:41.973Z,8.60
2018-12-03T22:29:18.096Z,3.08
2018-12-03T22:31:52.504Z,2.72
2018-12-03T22:34:27.734Z,3.70
2018-12-03T22:37:02.202Z,2.30
2018-12-03T22:39:36.576Z,2.50
2018-12-03T22:42:11.793Z,2.58
2018-12-03T22:44:46.608Z,2.40
2018-12-03T22:47:21.063Z,2.62
2018-12-03T22:49:55.537Z,1.90
2018-12-03T22:52:29.861Z,3.40
2018-12-03T22:55:04.691Z,8.65
2018-12-03T22:57:39.394Z,2.15
2018-12-03T23:00:16.502Z,6.75
2018-12-03T23:02:51.417Z,4.73
2018-12-03T23:05:25.907Z,4.90
2018-12-03T23:08:00.412Z,5.17
2018-12-03T23:10:35.015Z,1.95
2018-12-03T23:13:09.387Z,3.10
2018-12-03T23:15:43.877Z,2.40
2018-12-03T23:18:18.199Z,4.55
2018-12-03T23:20:52.619Z,4.40
2018-12-03T23:23:27.026Z,4.50
2018-12-03T23:26:01.443Z,1.90
2018-12-03T23:28:35.888Z,4.10
2018-12-03T23:31:10.264Z,2.40
2018-12-03T23:33:44.699Z,3.33
2018-12-03T23:36:19.200Z,2.50
2018-12-03T23:38:53.675Z,2.00
2018-12-03T23:41:28.168Z,2.60
2018-12-03T23:44:02.517Z,2.30
2018-12-03T23:46:37.322Z,2.55
2018-12-03T23:49:11.789Z,2.90
2018-12-03T23:51:47.080Z,2.75
2018-12-03T23:54:21.599Z,4.37
2018-12-03T23:56:56.240Z,4.00
2018-12-03T23:59:30.676Z,3.45
